createdAt,value
2023-05-18T00:02:26.477Z,102205.09
2023-05-18T00:04:53.166Z,102199.19
2023-05-18T00:07:19.640Z,102209.38
2023-05-18T00:09:46.054Z,102209.38
2023-05-18T00:12:12.451Z,102219.38
2023-05-18T00:14:38.833Z,102211.38
2023-05-18T00:17:05.281Z,102213.59
2023-05-18T00:19:31.681Z,102212.09
2023-05-18T00:21:58.079Z,102217.88
2023-05-18T00:24:24.480Z,102214.84
2023-05-18T00:26:50.864Z,102225.00
2023-05-18T00:29:17.294Z,102215.59
2023-05-18T00:31:45.405Z,102213.34
2023-05-18T00:34:12.764Z,102207.72
2023-05-18T00:36:39.322Z,102214.09
2023-05-18T00:39:06.323Z,102224.84
2023-05-18T00:41:32.707Z,102211.84
2023-05-18T00:43:59.629Z,102221.22
2023-05-18T00:46:26.668Z,102217.47
2023-05-18T00:48:53.439Z,102226.09
2023-05-18T00:51:20.049Z,102220.34
2023-05-18T00:53:46.686Z,102223.09
2023-05-18T00:56:13.172Z,102230.38
2023-05-18T00:58:39.572Z,102226.09
2023-05-18T01:01:06.188Z,102229.59
2023-05-18T01:03:33.421Z,102228.84
2023-05-18T01:05:59.825Z,102228.84
2023-05-18T01:08:27.146Z,102238.88
2023-05-18T01:10:57.258Z,102248.88
2023-05-18T01:13:24.598Z,102243.88
2023-05-18T01:15:52.838Z,102243.13
2023-05-18T01:18:32.970Z,102248.13
2023-05-18T01:20:59.848Z,102248.88
2023-05-18T01:23:45.053Z,102243.13
2023-05-18T01:26:13.006Z,102242.38
2023-05-18T01:28:39.442Z,102240.88
2023-05-18T01:31:05.904Z,102245.84
2023-05-18T01:33:32.455Z,102244.38
2023-05-18T01:35:58.834Z,102250.13
2023-05-18T01:38:26.258Z,102246.50
2023-05-18T01:40:52.597Z,102253.00
2023-05-18T01:43:19.038Z,102255.88
2023-05-18T01:45:45.925Z,102241.34
2023-05-18T01:48:12.327Z,102250.72
2023-05-18T01:50:40.028Z,102247.84
2023-05-18T01:53:06.868Z,102248.50
2023-05-18T01:55:33.558Z,102252.88
2023-05-18T01:57:59.968Z,102255.00
2023-05-18T02:00:26.439Z,102250.59
2023-05-18T02:02:53.114Z,102251.22
2023-05-18T02:05:19.587Z,102258.34
2023-05-18T02:07:47.463Z,102255.59
2023-05-18T02:10:14.444Z,102254.13
2023-05-18T02:12:41.010Z,102259.88
2023-05-18T02:15:08.996Z,102258.34
2023-05-18T02:17:38.965Z,102256.09
2023-05-18T02:20:09.232Z,102258.34
2023-05-18T02:22:36.075Z,102259.00
2023-05-18T02:25:02.709Z,102266.84
2023-05-18T02:27:29.939Z,102261.09
2023-05-18T02:29:56.780Z,102259.59
2023-05-18T02:32:23.592Z,102258.84
2023-05-18T02:34:52.734Z,102258.06
2023-05-18T02:37:19.500Z,102270.38
2023-05-18T02:39:45.894Z,102268.84
2023-05-18T02:42:13.726Z,102262.34
2023-05-18T02:44:40.112Z,102276.72
2023-05-18T02:47:06.653Z,102272.34
2023-05-18T02:49:33.508Z,102278.88
2023-05-18T02:51:59.922Z,102284.63
2023-05-18T02:54:26.596Z,102272.97
2023-05-18T02:56:56.871Z,102281.00
2023-05-18T02:59:39.452Z,102282.34
2023-05-18T03:02:05.977Z,102276.59
2023-05-18T03:04:32.720Z,102277.97
2023-05-18T03:07:02.660Z,102285.84
2023-05-18T03:09:29.404Z,102285.09
2023-05-18T03:11:56.073Z,102279.34
2023-05-18T03:14:22.632Z,102277.84
2023-05-18T03:16:53.644Z,102277.09
2023-05-18T03:19:21.130Z,102282.84
2023-05-18T03:21:49.387Z,102284.94
2023-05-18T03:24:16.211Z,102291.34
2023-05-18T03:26:46.411Z,102282.06
2023-05-18T03:29:13.540Z,102279.81
2023-05-18T03:31:41.032Z,102293.59
2023-05-18T03:34:08.019Z,102299.22
2023-05-18T03:36:35.669Z,102286.34
2023-05-18T03:39:02.263Z,102295.56
2023-05-18T03:41:29.873Z,102300.59
2023-05-18T03:43:56.349Z,102293.34
2023-05-18T03:46:23.170Z,102293.34
2023-05-18T03:48:49.586Z,102303.31
2023-05-18T03:51:20.746Z,102299.09
2023-05-18T03:53:47.754Z,102298.31
2023-05-18T03:56:14.168Z,102301.84
2023-05-18T03:58:42.323Z,102301.84
2023-05-18T04:01:09.383Z,102304.72
2023-05-18T04:03:35.828Z,102304.56
2023-05-18T04:06:02.300Z,102306.06
2023-05-18T04:08:30.502Z,102310.31
2023-05-18T04:10:58.312Z,102303.81
2023-05-18T04:13:24.784Z,102307.31
2023-05-18T04:15:51.707Z,102303.69
2023-05-18T04:18:18.133Z,102304.28
2023-05-18T04:20:45.997Z,102302.91
2023-05-18T04:23:12.398Z,102305.78
2023-05-18T04:25:39.389Z,102315.81
2023-05-18T04:28:06.479Z,102309.28
2023-05-18T04:30:33.263Z,102312.19
2023-05-18T04:33:00.299Z,102316.56
2023-05-18T04:35:27.709Z,102319.28
2023-05-18T04:37:55.430Z,102327.31
2023-05-18T04:40:22.469Z,102325.81
2023-05-18T04:42:49.462Z,102330.06
2023-05-18T04:45:26.898Z,102330.06
2023-05-18T04:47:55.806Z,102332.19
2023-05-18T04:50:25.326Z,102335.81
2023-05-18T04:52:51.813Z,102339.28
2023-05-18T04:55:27.693Z,102334.31
2023-05-18T04:57:57.311Z,102340.06
2023-05-18T05:00:24.780Z,102340.06
2023-05-18T05:02:51.437Z,102345.03
2023-05-18T05:05:18.847Z,102337.06
2023-05-18T05:07:45.462Z,102343.56
2023-05-18T05:10:12.022Z,102340.97
2023-05-18T05:12:38.998Z,102328.81
2023-05-18T05:15:05.551Z,102329.59
2023-05-18T05:17:32.172Z,102338.81
2023-05-18T05:19:58.561Z,102335.19
2023-05-18T05:22:25.041Z,102341.72
2023-05-18T05:24:52.141Z,102338.53
2023-05-18T05:27:19.912Z,102347.03
2023-05-18T05:29:46.720Z,102348.41
2023-05-18T05:32:13.190Z,102339.78
2023-05-18T05:34:43.820Z,102346.88
2023-05-18T05:37:10.208Z,102349.78
2023-05-18T05:39:36.693Z,102346.88
2023-05-18T05:42:03.272Z,102347.97
2023-05-18T05:44:30.022Z,102362.50
2023-05-18T05:46:56.475Z,102361.28
2023-05-18T05:49:23.144Z,102365.81
2023-05-18T05:51:49.538Z,102358.56
2023-05-18T05:54:16.539Z,102361.28
2023-05-18T05:56:43.731Z,102362.81
2023-05-18T05:59:10.668Z,102364.16
2023-05-18T06:01:37.155Z,102369.91
2023-05-18T06:04:06.314Z,102370.53
2023-05-18T06:06:32.702Z,102361.09
2023-05-18T06:08:59.152Z,102369.75
2023-05-18T06:11:25.603Z,102365.50
2023-05-18T06:13:52.436Z,102368.25
2023-05-18T06:16:18.850Z,102362.50
2023-05-18T06:18:45.325Z,102366.75
2023-05-18T06:21:11.776Z,102367.50
2023-05-18T06:23:41.015Z,102366.75
2023-05-18T06:26:22.066Z,102365.97
2023-05-18T06:29:08.864Z,102359.47
2023-05-18T06:31:53.627Z,102365.97
2023-05-18T06:34:23.760Z,102372.50
2023-05-18T06:36:50.816Z,102371.72
2023-05-18T06:39:17.413Z,102372.50
2023-05-18T06:41:45.631Z,102375.25
2023-05-18T06:44:19.348Z,102370.22
2023-05-18T06:47:17.906Z,102363.72
2023-05-18T06:49:44.355Z,102365.81
2023-05-18T06:52:11.435Z,102369.47
2023-05-18T06:54:38.374Z,102369.47
2023-05-18T06:57:05.080Z,102367.97
2023-05-18T06:59:31.453Z,102372.22
2023-05-18T07:01:58.545Z,102376.59
2023-05-18T07:04:25.791Z,102376.59
2023-05-18T07:06:53.614Z,102367.22
2023-05-18T07:09:19.993Z,102363.59
2023-05-18T07:11:46.401Z,102367.97
2023-05-18T07:14:12.788Z,102360.72
2023-05-18T07:16:39.599Z,102366.47
2023-05-18T07:19:06.019Z,102372.22
2023-05-18T07:21:32.861Z,102371.47
2023-05-18T07:23:59.255Z,102359.97
2023-05-18T07:26:26.093Z,102366.47
2023-05-18T07:28:52.565Z,102364.94
2023-05-18T07:31:21.226Z,102359.97
2023-05-18T07:33:50.617Z,102362.94
2023-05-18T07:36:17.200Z,102365.22
2023-05-18T07:38:44.093Z,102354.78
2023-05-18T07:41:10.479Z,102352.47
2023-05-18T07:43:36.893Z,102358.84
2023-05-18T07:46:03.268Z,102357.34
2023-05-18T07:48:29.684Z,102363.25
2023-05-18T07:50:56.062Z,102361.84
2023-05-18T07:53:22.473Z,102356.56
2023-05-18T07:55:49.938Z,102355.34
2023-05-18T07:58:16.361Z,102358.84
2023-05-18T08:00:44.299Z,102365.03
2023-05-18T08:03:11.074Z,102371.50
2023-05-18T08:05:37.564Z,102361.97
2023-05-18T08:08:06.601Z,102362.00
2023-05-18T08:10:33.485Z,102364.25
2023-05-18T08:12:59.882Z,102365.00
2023-05-18T08:15:26.253Z,102364.88
2023-05-18T08:17:52.763Z,102361.69
2023-05-18T08:20:19.237Z,102369.69
2023-05-18T08:22:45.696Z,102365.88
2023-05-18T08:25:12.086Z,102356.44
2023-05-18T08:27:38.475Z,102374.75
2023-05-18T08:30:04.969Z,102365.78
2023-05-18T08:32:31.973Z,102368.34
2023-05-18T08:34:58.551Z,102374.50
2023-05-18T08:37:29.272Z,102368.00
2023-05-18T08:39:55.800Z,102370.44
2023-05-18T08:42:23.438Z,102364.66
2023-05-18T08:45:09.451Z,102368.31
2023-05-18T08:47:35.890Z,102368.31
2023-05-18T08:50:02.581Z,102363.28
2023-05-18T08:52:29.585Z,102369.78
2023-05-18T08:54:56.428Z,102366.16
2023-05-18T08:57:24.083Z,102367.66
2023-05-18T08:59:50.663Z,102364.38
2023-05-18T09:02:17.128Z,102371.63
2023-05-18T09:04:44.917Z,102373.16
2023-05-18T09:07:11.358Z,102369.66
2023-05-18T09:09:38.336Z,102369.19
2023-05-18T09:12:04.739Z,102370.69
2023-05-18T09:14:31.797Z,102373.56
2023-05-18T09:16:58.171Z,102370.69
2023-05-18T09:19:25.012Z,102371.47
2023-05-18T09:21:51.523Z,102359.97
2023-05-18T09:24:19.327Z,102365.25
2023-05-18T09:26:46.304Z,102361.66
2023-05-18T09:29:19.148Z,102358.69
2023-05-18T09:31:46.543Z,102362.25
2023-05-18T09:34:13.279Z,102357.69
2023-05-18T09:36:39.702Z,102353.44
2023-05-18T09:39:12.314Z,102356.66
2023-05-18T09:41:39.892Z,102352.22
2023-05-18T09:44:09.427Z,102344.34
2023-05-18T09:46:36.380Z,102335.91
2023-05-18T09:49:03.533Z,102343.72
2023-05-18T09:51:29.927Z,102352.78
2023-05-18T09:53:56.746Z,102342.34
2023-05-18T09:56:24.012Z,102349.47
2023-05-18T09:58:50.420Z,102358.13
2023-05-18T10:01:16.861Z,102350.84
2023-05-18T10:03:45.575Z,102347.50
2023-05-18T10:06:14.583Z,102338.09
2023-05-18T10:08:40.991Z,102336.59
2023-05-18T10:11:07.423Z,102322.19
2023-05-18T10:13:34.007Z,102336.59
2023-05-18T10:16:01.066Z,102330.84
2023-05-18T10:18:27.988Z,102325.22
2023-05-18T10:20:55.587Z,102324.47
2023-05-18T10:23:23.042Z,102326.56
2023-05-18T10:25:49.777Z,102313.72
2023-05-18T10:28:18.393Z,102306.44
2023-05-18T10:30:44.790Z,102312.97
2023-05-18T10:33:20.631Z,102313.72
2023-05-18T10:35:54.696Z,102310.81
2023-05-18T10:38:21.780Z,102313.72
2023-05-18T10:40:49.141Z,102308.72
2023-05-18T10:43:17.507Z,102313.72
2023-05-18T10:45:46.550Z,102302.81
2023-05-18T10:48:12.978Z,102309.47
2023-05-18T10:50:39.387Z,102306.44
2023-05-18T10:53:05.886Z,102306.59
2023-05-18T10:55:32.338Z,102298.75
2023-05-18T10:58:01.278Z,102297.97
2023-05-18T11:00:27.653Z,102293.72
2023-05-18T11:02:54.196Z,102296.59
2023-05-18T11:05:24.316Z,102300.25
2023-05-18T11:07:50.946Z,102299.50
2023-05-18T11:10:17.328Z,102298.75
2023-05-18T11:12:43.700Z,102296.59
2023-05-18T11:15:10.200Z,102293.72
2023-05-18T11:17:36.731Z,102304.50
2023-05-18T11:20:09.363Z,102297.34
2023-05-18T11:22:42.406Z,102302.38
2023-05-18T11:25:09.099Z,102295.22
2023-05-18T11:27:35.506Z,102284.50
2023-05-18T11:30:14.943Z,102294.63
2023-05-18T11:32:49.690Z,102275.22
2023-05-18T11:35:22.547Z,102292.50
2023-05-18T11:37:49.402Z,102285.38
2023-05-18T11:40:34.637Z,102289.63
2023-05-18T11:43:01.058Z,102284.59
2023-05-18T11:45:27.441Z,102283.84
2023-05-18T11:47:56.263Z,102287.38
2023-05-18T11:50:22.679Z,102289.47
2023-05-18T11:52:50.592Z,102292.78
2023-05-18T11:55:17.924Z,102287.16
2023-05-18T11:57:45.480Z,102288.78
2023-05-18T12:00:12.232Z,102292.09
2023-05-18T12:02:45.700Z,102286.47
2023-05-18T12:05:12.382Z,102287.28
2023-05-18T12:07:38.960Z,102289.34
2023-05-18T12:10:07.206Z,102286.16
2023-05-18T12:12:33.998Z,102270.72
2023-05-18T12:15:05.196Z,102276.75
2023-05-18T12:17:41.300Z,102274.41
2023-05-18T12:20:17.433Z,102279.56
2023-05-18T12:22:44.452Z,102280.44
2023-05-18T12:25:10.944Z,102274.06
2023-05-18T12:27:40.761Z,102271.00
2023-05-18T12:30:40.574Z,102266.31
2023-05-18T12:33:07.342Z,102267.28
2023-05-18T12:35:34.114Z,102273.03
2023-05-18T12:38:01.481Z,102261.53
2023-05-18T12:40:28.410Z,102259.72
2023-05-18T12:42:55.212Z,102262.75
2023-05-18T12:45:22.692Z,102252.75
2023-05-18T12:47:54.271Z,102260.53
2023-05-18T12:50:21.098Z,102260.69
2023-05-18T12:52:48.015Z,102263.47
2023-05-18T12:55:23.323Z,102257.34
2023-05-18T12:58:12.771Z,102246.69
2023-05-18T13:00:39.145Z,102254.88
2023-05-18T13:03:25.785Z,102255.56
2023-05-18T13:06:02.002Z,102250.56
2023-05-18T13:08:28.444Z,102250.72
2023-05-18T13:11:09.161Z,102241.97
2023-05-18T13:13:39.806Z,102245.03
2023-05-18T13:16:09.643Z,102239.38
2023-05-18T13:18:36.101Z,102243.84
2023-05-18T13:21:02.587Z,102240.84
2023-05-18T13:23:29.558Z,102243.69
2023-05-18T13:25:58.212Z,102241.72
2023-05-18T13:28:25.309Z,102238.84
2023-05-18T13:30:51.699Z,102233.16
2023-05-18T13:33:19.077Z,102234.28
2023-05-18T13:35:45.742Z,102237.19
2023-05-18T13:38:13.214Z,102226.75
2023-05-18T13:40:39.774Z,102226.81
2023-05-18T13:43:06.208Z,102226.81
2023-05-18T13:45:33.026Z,102229.50
2023-05-18T13:47:59.733Z,102233.38
2023-05-18T13:50:26.318Z,102222.34
2023-05-18T13:52:52.905Z,102224.41
2023-05-18T13:55:19.425Z,102218.91
2023-05-18T13:57:46.616Z,102212.88
2023-05-18T14:00:13.789Z,102213.91
2023-05-18T14:02:40.800Z,102212.22
2023-05-18T14:05:10.200Z,102203.22
2023-05-18T14:07:36.745Z,102210.34
2023-05-18T14:10:03.486Z,102208.19
2023-05-18T14:12:29.865Z,102216.19
2023-05-18T14:14:56.497Z,102218.19
2023-05-18T14:17:22.898Z,102211.72
2023-05-18T14:19:49.308Z,102207.47
2023-05-18T14:22:16.497Z,102205.09
2023-05-18T14:24:42.947Z,102206.97
2023-05-18T14:27:09.330Z,102196.44
2023-05-18T14:29:36.253Z,102207.47
2023-05-18T14:32:02.675Z,102203.97
2023-05-18T14:34:29.088Z,102188.03
2023-05-18T14:36:55.473Z,102188.69
2023-05-18T14:39:21.868Z,102192.44
2023-05-18T14:41:48.241Z,102190.94
2023-05-18T14:44:14.626Z,102198.47
2023-05-18T14:46:41.306Z,102196.97
2023-05-18T14:49:07.864Z,102195.44
2023-05-18T14:51:34.283Z,102193.94
2023-05-18T14:54:00.734Z,102188.69
2023-05-18T14:56:27.295Z,102189.41
2023-05-18T14:58:53.676Z,102183.66
2023-05-18T15:01:20.129Z,102186.53
2023-05-18T15:03:46.733Z,102184.41
2023-05-18T15:06:13.369Z,102188.81
2023-05-18T15:08:40.004Z,102189.03
2023-05-18T15:11:06.397Z,102188.28
2023-05-18T15:13:32.778Z,102192.69
2023-05-18T15:15:59.206Z,102187.19
2023-05-18T15:18:25.858Z,102190.81
2023-05-18T15:20:52.365Z,102188.69
2023-05-18T15:23:18.750Z,102186.69
2023-05-18T15:25:45.128Z,102190.44
2023-05-18T15:28:11.523Z,102195.72
2023-05-18T15:30:38.219Z,102187.69
2023-05-18T15:33:06.115Z,102188.94
2023-05-18T15:35:34.765Z,102185.19
2023-05-18T15:38:01.178Z,102181.88
2023-05-18T15:40:27.570Z,102179.38
2023-05-18T15:42:53.945Z,102181.13
2023-05-18T15:45:20.335Z,102175.47
2023-05-18T15:47:46.729Z,102173.59
2023-05-18T15:50:16.121Z,102170.84
2023-05-18T15:52:42.562Z,102173.59
2023-05-18T15:55:09.136Z,102162.09
2023-05-18T15:57:35.680Z,102178.41
2023-05-18T16:00:02.205Z,102166.59
2023-05-18T16:02:38.182Z,102162.09
2023-05-18T16:05:04.780Z,102160.59
2023-05-18T16:07:31.171Z,102159.09
2023-05-18T16:09:57.549Z,102159.84
2023-05-18T16:12:23.940Z,102159.09
2023-05-18T16:14:51.727Z,102154.72
2023-05-18T16:17:18.385Z,102156.09
2023-05-18T16:19:44.794Z,102164.75
2023-05-18T16:22:11.169Z,102167.63
2023-05-18T16:24:37.652Z,102161.97
2023-05-18T16:27:04.039Z,102157.59
2023-05-18T16:29:30.419Z,102157.47
2023-05-18T16:31:56.895Z,102160.22
2023-05-18T16:34:23.374Z,102160.97
2023-05-18T16:36:49.770Z,102161.59
2023-05-18T16:39:16.242Z,102154.34
2023-05-18T16:41:42.611Z,102162.88
2023-05-18T16:44:08.989Z,102165.50
2023-05-18T16:46:35.543Z,102161.13
2023-05-18T16:49:01.950Z,102158.09
2023-05-18T16:51:28.354Z,102156.97
2023-05-18T16:53:55.482Z,102154.69
2023-05-18T16:56:22.256Z,102154.34
2023-05-18T16:58:52.260Z,102147.19
2023-05-18T17:01:27.497Z,102160.09
2023-05-18T17:03:55.421Z,102158.47
2023-05-18T17:06:21.949Z,102154.34
2023-05-18T17:08:50.538Z,102155.97
2023-05-18T17:11:16.926Z,102154.47
2023-05-18T17:13:44.382Z,102161.47
2023-05-18T17:16:11.318Z,102162.00
2023-05-18T17:18:37.816Z,102161.59
2023-05-18T17:21:04.285Z,102153.53
2023-05-18T17:23:30.698Z,102154.66
2023-05-18T17:26:05.854Z,102153.94
2023-05-18T17:28:32.900Z,102154.16
2023-05-18T17:30:59.323Z,102150.53
2023-05-18T17:33:25.721Z,102156.53
2023-05-18T17:35:52.112Z,102157.81
2023-05-18T17:38:18.523Z,102163.50
2023-05-18T17:40:44.912Z,102172.06
2023-05-18T17:43:11.300Z,102163.00
2023-05-18T17:45:37.698Z,102163.16
2023-05-18T17:48:04.295Z,102163.16
2023-05-18T17:50:30.944Z,102163.25
2023-05-18T17:52:57.592Z,102164.03
2023-05-18T17:55:23.959Z,102159.72
2023-05-18T17:57:51.024Z,102165.81
2023-05-18T18:00:17.553Z,102160.94
2023-05-18T18:02:44.081Z,102163.44
2023-05-18T18:05:10.671Z,102166.31
2023-05-18T18:07:37.111Z,102166.06
2023-05-18T18:10:04.587Z,102168.84
2023-05-18T18:12:31.281Z,102168.84
2023-05-18T18:14:57.644Z,102170.59
2023-05-18T18:17:24.162Z,102174.09
2023-05-18T18:19:50.621Z,102167.56
2023-05-18T18:22:17.004Z,102169.06
2023-05-18T18:24:43.383Z,102175.84
2023-05-18T18:27:09.774Z,102179.09
2023-05-18T18:29:36.168Z,102172.84
2023-05-18T18:32:02.577Z,102167.22
2023-05-18T18:34:29.024Z,102179.13
2023-05-18T18:36:55.421Z,102175.88
2023-05-18T18:39:21.822Z,102178.78
2023-05-18T18:41:48.209Z,102175.63
2023-05-18T18:44:14.585Z,102182.91
2023-05-18T18:46:41.023Z,102177.41
2023-05-18T18:49:07.449Z,102175.38
2023-05-18T18:51:33.832Z,102187.94
2023-05-18T18:54:00.258Z,102183.28
2023-05-18T18:56:27.414Z,102186.66
2023-05-18T18:58:53.788Z,102185.66
2023-05-18T19:01:20.316Z,102194.31
2023-05-18T19:03:46.708Z,102200.47
2023-05-18T19:06:14.671Z,102206.25
2023-05-18T19:08:41.200Z,102207.47
2023-05-18T19:11:07.590Z,102204.50
2023-05-18T19:13:34.006Z,102214.50
2023-05-18T19:16:00.425Z,102206.38
2023-05-18T19:18:26.813Z,102213.50
2023-05-18T19:20:53.179Z,102213.38
2023-05-18T19:23:19.567Z,102214.00
2023-05-18T19:25:46.058Z,102214.63
2023-05-18T19:28:12.453Z,102223.88
2023-05-18T19:30:38.859Z,102223.75
2023-05-18T19:33:05.330Z,102228.03
2023-05-18T19:35:31.937Z,102226.50
2023-05-18T19:37:58.896Z,102221.38
2023-05-18T19:40:27.218Z,102232.28
2023-05-18T19:42:53.777Z,102227.03
2023-05-18T19:45:20.297Z,102226.41
2023-05-18T19:47:46.797Z,102220.50
2023-05-18T19:50:13.234Z,102226.13
2023-05-18T19:52:41.262Z,102218.84
2023-05-18T19:55:07.659Z,102231.78
2023-05-18T19:57:34.076Z,102229.50
2023-05-18T20:00:01.048Z,102227.25
2023-05-18T20:02:27.496Z,102231.50
2023-05-18T20:04:53.978Z,102225.00
2023-05-18T20:07:20.525Z,102230.75
2023-05-18T20:09:47.001Z,102230.75
2023-05-18T20:12:13.385Z,102228.47
2023-05-18T20:14:39.790Z,102225.44
2023-05-18T20:17:06.215Z,102230.47
2023-05-18T20:19:32.645Z,102229.72
2023-05-18T20:21:59.095Z,102232.47
2023-05-18T20:24:25.547Z,102244.00
2023-05-18T20:26:52.870Z,102244.00
2023-05-18T20:29:19.266Z,102240.97
2023-05-18T20:31:45.990Z,102246.75
2023-05-18T20:34:12.488Z,102248.13
2023-05-18T20:36:38.874Z,102247.34
2023-05-18T20:39:05.372Z,102253.75
2023-05-18T20:41:31.749Z,102256.63
2023-05-18T20:44:01.973Z,102258.75
2023-05-18T20:46:31.072Z,102260.13
2023-05-18T20:48:57.763Z,102262.28
2023-05-18T20:51:24.690Z,102244.97
2023-05-18T20:53:51.220Z,102257.25
2023-05-18T20:56:18.134Z,102254.97
2023-05-18T20:58:48.630Z,102253.63
2023-05-18T21:01:15.662Z,102251.34
2023-05-18T21:03:45.880Z,102252.75
2023-05-18T21:06:15.362Z,102258.50
2023-05-18T21:08:42.401Z,102253.34
2023-05-18T21:11:08.909Z,102259.88
2023-05-18T21:13:36.876Z,102256.25
2023-05-18T21:16:06.403Z,102248.22
2023-05-18T21:18:34.213Z,102254.75
2023-05-18T21:21:01.009Z,102260.50
2023-05-18T21:23:27.409Z,102270.50
2023-05-18T21:25:53.838Z,102261.13
2023-05-18T21:28:20.229Z,102271.13
2023-05-18T21:30:46.666Z,102266.13
2023-05-18T21:33:13.152Z,102261.72
2023-05-18T21:35:39.634Z,102261.72
2023-05-18T21:38:06.136Z,102270.38
2023-05-18T21:40:32.746Z,102266.00
2023-05-18T21:42:59.338Z,102259.47
2023-05-18T21:45:26.202Z,102266.00
2023-05-18T21:47:52.719Z,102257.97
2023-05-18T21:50:19.199Z,102255.69
2023-05-18T21:52:45.622Z,102257.22
2023-05-18T21:55:12.008Z,102258.72
2023-05-18T21:57:38.400Z,102265.72
2023-05-18T22:00:06.335Z,102265.44
2023-05-18T22:02:39.032Z,102262.72
2023-05-18T22:05:05.599Z,102257.69
2023-05-18T22:07:32.007Z,102262.09
2023-05-18T22:09:58.400Z,102258.47
2023-05-18T22:12:24.809Z,102262.72
2023-05-18T22:14:51.201Z,102268.47
2023-05-18T22:17:17.986Z,102259.81
2023-05-18T22:19:45.552Z,102264.84
2023-05-18T22:22:19.430Z,102259.69
2023-05-18T22:24:55.418Z,102263.97
2023-05-18T22:27:21.909Z,102268.34
2023-05-18T22:29:48.304Z,102269.72
2023-05-18T22:32:15.688Z,102265.31
2023-05-18T22:34:42.095Z,102263.81
2023-05-18T22:37:08.483Z,102270.94
2023-05-18T22:39:34.891Z,102260.94
2023-05-18T22:42:01.293Z,102263.81
2023-05-18T22:44:27.667Z,102260.81
2023-05-18T22:46:54.103Z,102257.19
2023-05-18T22:49:21.097Z,102258.66
2023-05-18T22:51:47.514Z,102256.44
2023-05-18T22:54:13.936Z,102257.78
2023-05-18T22:56:40.350Z,102253.41
2023-05-18T22:59:10.117Z,102252.63
2023-05-18T23:01:37.712Z,102247.66
2023-05-18T23:04:04.229Z,102246.13
2023-05-18T23:06:31.671Z,102246.13
2023-05-18T23:09:00.420Z,102241.63
2023-05-18T23:11:28.447Z,102249.66
2023-05-18T23:13:55.025Z,102252.38
2023-05-18T23:16:22.669Z,102249.50
2023-05-18T23:18:50.525Z,102248.88
2023-05-18T23:21:17.073Z,102259.66
2023-05-18T23:23:45.558Z,102253.00
2023-05-18T23:26:12.573Z,102250.25
2023-05-18T23:28:38.993Z,102245.84
2023-05-18T23:31:05.400Z,102248.13
2023-05-18T23:33:31.868Z,102253.13
2023-05-18T23:35:59.244Z,102244.38
2023-05-18T23:38:28.706Z,102242.84
2023-05-18T23:40:55.147Z,102249.50
2023-05-18T23:43:21.567Z,102251.47
2023-05-18T23:45:47.993Z,102247.25
2023-05-18T23:48:14.436Z,102243.63
2023-05-18T23:50:40.949Z,102243.63
2023-05-18T23:53:07.338Z,102244.38
2023-05-18T23:55:33.730Z,102249.38
2023-05-18T23:58:00.167Z,102247.09
